sensor_id;sensor_type;location;lat;lon;timestamp;P1;durP1;ratioP1;P2;durP2;ratioP2
73841;SDS011;62184;52.006;5.924;2023-01-15T00:00:59;3.00;;;0.97;;
73841;SDS011;62184;52.006;5.924;2023-01-15T00:03:27;2.60;;;0.80;;
73841;SDS011;62184;52.006;5.924;2023-01-15T00:05:55;2.60;;;0.75;;
73841;SDS011;62184;52.006;5.924;2023-01-15T00:08:26;2.60;;;0.70;;
73841;SDS011;62184;52.006;5.924;2023-01-15T00:10:52;2.50;;;0.70;;
73841;SDS011;62184;52.006;5.924;2023-01-15T00:13:19;2.60;;;0.73;;
73841;SDS011;62184;52.006;5.924;2023-01-15T00:15:45;2.67;;;0.77;;
73841;SDS011;62184;52.006;5.924;2023-01-15T00:18:14;2.53;;;0.73;;
73841;SDS011;62184;52.006;5.924;2023-01-15T00:20:40;2.57;;;0.70;;
73841;SDS011;62184;52.006;5.924;2023-01-15T00:23:07;2.70;;;0.80;;
73841;SDS011;62184;52.006;5.924;2023-01-15T00:25:33;2.60;;;0.70;;
73841;SDS011;62184;52.006;5.924;2023-01-15T00:28:00;2.70;;;0.80;;
73841;SDS011;62184;52.006;5.924;2023-01-15T00:30:26;2.60;;;0.77;;
73841;SDS011;62184;52.006;5.924;2023-01-15T00:32:52;2.50;;;0.70;;
73841;SDS011;62184;52.006;5.924;2023-01-15T00:35:22;2.45;;;0.68;;
73841;SDS011;62184;52.006;5.924;2023-01-15T00:37:49;2.70;;;0.80;;
73841;SDS011;62184;52.006;5.924;2023-01-15T00:40:17;2.63;;;0.70;;
73841;SDS011;62184;52.006;5.924;2023-01-15T00:42:45;2.60;;;0.80;;
73841;SDS011;62184;52.006;5.924;2023-01-15T00:45:11;2.60;;;0.70;;
73841;SDS011;62184;52.006;5.924;2023-01-15T00:47:38;2.60;;;0.70;;
73841;SDS011;62184;52.006;5.924;2023-01-15T00:50:08;2.60;;;0.77;;
73841;SDS011;62184;52.006;5.924;2023-01-15T00:52:40;2.78;;;1.10;;
73841;SDS011;62184;52.006;5.924;2023-01-15T00:55:07;2.80;;;0.90;;
73841;SDS011;62184;52.006;5.924;2023-01-15T00:57:34;2.70;;;0.73;;
73841;SDS011;62184;52.006;5.924;2023-01-15T01:00:01;2.72;;;1.02;;
73841;SDS011;62184;52.006;5.924;2023-01-15T01:02:27;2.60;;;0.80;;
73841;SDS011;62184;52.006;5.924;2023-01-15T01:04:53;2.80;;;1.00;;
73841;SDS011;62184;52.006;5.924;2023-01-15T01:07:20;2.70;;;0.80;;
73841;SDS011;62184;52.006;5.924;2023-01-15T01:09:49;2.60;;;0.90;;
73841;SDS011;62184;52.006;5.924;2023-01-15T01:12:15;2.70;;;0.80;;
73841;SDS011;62184;52.006;5.924;2023-01-15T01:14:42;2.83;;;1.02;;
73841;SDS011;62184;52.006;5.924;2023-01-15T01:17:08;2.78;;;0.90;;
73841;SDS011;62184;52.006;5.924;2023-01-15T01:19:35;2.80;;;1.00;;
73841;SDS011;62184;52.006;5.924;2023-01-15T01:22:01;3.58;;;1.17;;
73841;SDS011;62184;52.006;5.924;2023-01-15T01:24:28;2.78;;;1.17;;
73841;SDS011;62184;52.006;5.924;2023-01-15T01:26:57;2.80;;;1.00;;
73841;SDS011;62184;52.006;5.924;2023-01-15T01:29:23;2.70;;;0.85;;
73841;SDS011;62184;52.006;5.924;2023-01-15T01:31:49;2.70;;;0.82;;
73841;SDS011;62184;52.006;5.924;2023-01-15T01:34:16;2.60;;;0.70;;
73841;SDS011;62184;52.006;5.924;2023-01-15T01:36:43;2.70;;;0.80;;
73841;SDS011;62184;52.006;5.924;2023-01-15T01:39:11;2.70;;;0.90;;
73841;SDS011;62184;52.006;5.924;2023-01-15T01:41:41;2.70;;;0.95;;
73841;SDS011;62184;52.006;5.924;2023-01-15T01:47:26;3.10;;;1.77;;
73841;SDS011;62184;52.006;5.924;2023-01-15T01:49:56;2.90;;;1.25;;
73841;SDS011;62184;52.006;5.924;2023-01-15T01:52:29;2.80;;;1.10;;
73841;SDS011;62184;52.006;5.924;2023-01-15T01:55:05;2.90;;;1.20;;
73841;SDS011;62184;52.006;5.924;2023-01-15T01:57:35;2.70;;;0.90;;
73841;SDS011;62184;52.006;5.924;2023-01-15T02:00:07;2.70;;;0.80;;
73841;SDS011;62184;52.006;5.924;2023-01-15T02:02:36;2.78;;;0.88;;
73841;SDS011;62184;52.006;5.924;2023-01-15T02:05:04;2.70;;;0.97;;
73841;SDS011;62184;52.006;5.924;2023-01-15T02:07:33;2.70;;;0.90;;
73841;SDS011;62184;52.006;5.924;2023-01-15T02:10:00;2.80;;;1.00;;
73841;SDS011;62184;52.006;5.924;2023-01-15T02:12:27;2.60;;;0.90;;
73841;SDS011;62184;52.006;5.924;2023-01-15T02:15:02;2.73;;;0.93;;
73841;SDS011;62184;52.006;5.924;2023-01-15T02:17:40;2.70;;;0.90;;
73841;SDS011;62184;52.006;5.924;2023-01-15T02:20:23;2.80;;;1.08;;
73841;SDS011;62184;52.006;5.924;2023-01-15T02:23:02;2.80;;;0.90;;
73841;SDS011;62184;52.006;5.924;2023-01-15T02:26:17;2.60;;;0.80;;
73841;SDS011;62184;52.006;5.924;2023-01-15T02:29:09;2.70;;;0.90;;
73841;SDS011;62184;52.006;5.924;2023-01-15T02:31:45;2.67;;;0.82;;
73841;SDS011;62184;52.006;5.924;2023-01-15T02:34:18;3.00;;;1.00;;
73841;SDS011;62184;52.006;5.924;2023-01-15T02:36:53;2.70;;;0.80;;
73841;SDS011;62184;52.006;5.924;2023-01-15T02:39:28;2.83;;;0.95;;
73841;SDS011;62184;52.006;5.924;2023-01-15T02:42:01;2.80;;;1.00;;
73841;SDS011;62184;52.006;5.924;2023-01-15T02:44:33;3.08;;;0.90;;
73841;SDS011;62184;52.006;5.924;2023-01-15T02:47:06;2.60;;;0.70;;
73841;SDS011;62184;52.006;5.924;2023-01-15T02:49:36;2.83;;;1.00;;
73841;SDS011;62184;52.006;5.924;2023-01-15T02:52:09;2.80;;;0.90;;
73841;SDS011;62184;52.006;5.924;2023-01-15T02:54:46;2.67;;;0.80;;
73841;SDS011;62184;52.006;5.924;2023-01-15T02:57:23;3.50;;;1.20;;
73841;SDS011;62184;52.006;5.924;2023-01-15T02:59:55;2.80;;;1.05;;
73841;SDS011;62184;52.006;5.924;2023-01-15T03:02:28;3.50;;;1.10;;
73841;SDS011;62184;52.006;5.924;2023-01-15T03:05:04;2.70;;;0.93;;
73841;SDS011;62184;52.006;5.924;2023-01-15T03:07:39;2.70;;;0.88;;
73841;SDS011;62184;52.006;5.924;2023-01-15T03:10:14;2.60;;;0.80;;
73841;SDS011;62184;52.006;5.924;2023-01-15T03:12:46;2.75;;;0.90;;
73841;SDS011;62184;52.006;5.924;2023-01-15T03:15:20;2.63;;;0.88;;
73841;SDS011;62184;52.006;5.924;2023-01-15T03:17:52;2.80;;;1.15;;
73841;SDS011;62184;52.006;5.924;2023-01-15T03:20:22;2.77;;;1.07;;
73841;SDS011;62184;52.006;5.924;2023-01-15T03:22:52;2.80;;;1.02;;
73841;SDS011;62184;52.006;5.924;2023-01-15T03:25:33;2.80;;;1.00;;
73841;SDS011;62184;52.006;5.924;2023-01-15T03:28:07;2.70;;;1.10;;
73841;SDS011;62184;52.006;5.924;2023-01-15T03:30:38;2.70;;;1.00;;
73841;SDS011;62184;52.006;5.924;2023-01-15T03:33:05;2.72;;;0.93;;
73841;SDS011;62184;52.006;5.924;2023-01-15T03:35:41;2.88;;;1.17;;
73841;SDS011;62184;52.006;5.924;2023-01-15T03:38:12;2.60;;;0.90;;
73841;SDS011;62184;52.006;5.924;2023-01-15T03:40:46;2.70;;;0.90;;
73841;SDS011;62184;52.006;5.924;2023-01-15T03:43:26;2.70;;;0.80;;
73841;SDS011;62184;52.006;5.924;2023-01-15T03:46:08;2.63;;;0.80;;
73841;SDS011;62184;52.006;5.924;2023-01-15T03:48:50;2.80;;;1.00;;
73841;SDS011;62184;52.006;5.924;2023-01-15T03:51:27;2.60;;;0.70;;
73841;SDS011;62184;52.006;5.924;2023-01-15T03:54:06;2.80;;;1.10;;
73841;SDS011;62184;52.006;5.924;2023-01-15T03:56:41;2.70;;;0.90;;
73841;SDS011;62184;52.006;5.924;2023-01-15T03:59:21;2.90;;;1.20;;
73841;SDS011;62184;52.006;5.924;2023-01-15T04:01:55;2.70;;;0.80;;
73841;SDS011;62184;52.006;5.924;2023-01-15T04:04:23;2.73;;;0.93;;
73841;SDS011;62184;52.006;5.924;2023-01-15T04:06:52;2.70;;;0.93;;
73841;SDS011;62184;52.006;5.924;2023-01-15T04:09:20;2.90;;;1.27;;
73841;SDS011;62184;52.006;5.924;2023-01-15T04:11:48;2.80;;;1.10;;
73841;SDS011;62184;52.006;5.924;2023-01-15T04:14:15;3.30;;;1.70;;
73841;SDS011;62184;52.006;5.924;2023-01-15T04:16:44;2.80;;;1.10;;
73841;SDS011;62184;52.006;5.924;2023-01-15T04:19:10;2.60;;;0.82;;
73841;SDS011;62184;52.006;5.924;2023-01-15T04:21:36;2.70;;;0.87;;
73841;SDS011;62184;52.006;5.924;2023-01-15T04:24:03;2.80;;;1.20;;
73841;SDS011;62184;52.006;5.924;2023-01-15T04:26:30;2.75;;;1.05;;
73841;SDS011;62184;52.006;5.924;2023-01-15T04:28:56;2.70;;;0.90;;
73841;SDS011;62184;52.006;5.924;2023-01-15T04:31:23;2.70;;;0.80;;
73841;SDS011;62184;52.006;5.924;2023-01-15T04:33:52;2.90;;;1.17;;
73841;SDS011;62184;52.006;5.924;2023-01-15T04:36:18;2.97;;;1.23;;
73841;SDS011;62184;52.006;5.924;2023-01-15T04:38:45;3.00;;;1.40;;
73841;SDS011;62184;52.006;5.924;2023-01-15T04:41:11;2.70;;;1.00;;
73841;SDS011;62184;52.006;5.924;2023-01-15T04:43:37;2.85;;;1.08;;
73841;SDS011;62184;52.006;5.924;2023-01-15T04:46:04;3.03;;;1.38;;
73841;SDS011;62184;52.006;5.924;2023-01-15T04:48:30;3.00;;;1.55;;
73841;SDS011;62184;52.006;5.924;2023-01-15T04:51:03;2.80;;;1.07;;
73841;SDS011;62184;52.006;5.924;2023-01-15T04:53:32;2.90;;;1.30;;
73841;SDS011;62184;52.006;5.924;2023-01-15T04:55:59;3.00;;;1.50;;
73841;SDS011;62184;52.006;5.924;2023-01-15T04:58:26;2.90;;;1.30;;
73841;SDS011;62184;52.006;5.924;2023-01-15T05:00:53;2.90;;;1.30;;
73841;SDS011;62184;52.006;5.924;2023-01-15T05:03:19;2.80;;;1.02;;
73841;SDS011;62184;52.006;5.924;2023-01-15T05:05:46;2.90;;;1.40;;
73841;SDS011;62184;52.006;5.924;2023-01-15T05:08:15;3.60;;;2.15;;
73841;SDS011;62184;52.006;5.924;2023-01-15T05:10:41;2.85;;;1.20;;
73841;SDS011;62184;52.006;5.924;2023-01-15T05:13:08;2.80;;;1.00;;
73841;SDS011;62184;52.006;5.924;2023-01-15T05:15:34;2.60;;;0.80;;
73841;SDS011;62184;52.006;5.924;2023-01-15T05:18:01;3.35;;;0.95;;
73841;SDS011;62184;52.006;5.924;2023-01-15T05:20:27;2.95;;;1.17;;
73841;SDS011;62184;52.006;5.924;2023-01-15T05:22:54;2.80;;;1.00;;
73841;SDS011;62184;52.006;5.924;2023-01-15T05:25:23;2.80;;;1.10;;
73841;SDS011;62184;52.006;5.924;2023-01-15T05:27:49;2.70;;;0.90;;
73841;SDS011;62184;52.006;5.924;2023-01-15T05:30:16;3.17;;;1.00;;
73841;SDS011;62184;52.006;5.924;2023-01-15T05:32:43;3.17;;;1.58;;
73841;SDS011;62184;52.006;5.924;2023-01-15T05:35:09;2.85;;;1.15;;
73841;SDS011;62184;52.006;5.924;2023-01-15T05:37:36;2.70;;;0.85;;
73841;SDS011;62184;52.006;5.924;2023-01-15T05:40:02;2.63;;;0.90;;
73841;SDS011;62184;52.006;5.924;2023-01-15T05:42:33;3.22;;;1.02;;
73841;SDS011;62184;52.006;5.924;2023-01-15T05:44:59;2.80;;;1.00;;
73841;SDS011;62184;52.006;5.924;2023-01-15T05:47:26;2.90;;;1.40;;
73841;SDS011;62184;52.006;5.924;2023-01-15T05:49:52;2.70;;;1.00;;
73841;SDS011;62184;52.006;5.924;2023-01-15T05:52:18;2.85;;;1.00;;
73841;SDS011;62184;52.006;5.924;2023-01-15T05:54:45;2.70;;;0.95;;
73841;SDS011;62184;52.006;5.924;2023-01-15T05:57:14;2.80;;;1.20;;
73841;SDS011;62184;52.006;5.924;2023-01-15T05:59:43;3.00;;;1.30;;
73841;SDS011;62184;52.006;5.924;2023-01-15T06:02:10;2.70;;;1.00;;
73841;SDS011;62184;52.006;5.924;2023-01-15T06:04:36;2.70;;;0.80;;
73841;SDS011;62184;52.006;5.924;2023-01-15T06:07:03;2.60;;;0.90;;
73841;SDS011;62184;52.006;5.924;2023-01-15T06:09:30;2.70;;;0.90;;
73841;SDS011;62184;52.006;5.924;2023-01-15T06:11:56;2.78;;;0.90;;
73841;SDS011;62184;52.006;5.924;2023-01-15T06:14:23;2.80;;;1.17;;
73841;SDS011;62184;52.006;5.924;2023-01-15T06:16:52;3.13;;;1.33;;
73841;SDS011;62184;52.006;5.924;2023-01-15T06:19:19;2.90;;;1.45;;
73841;SDS011;62184;52.006;5.924;2023-01-15T06:21:45;2.80;;;1.07;;
73841;SDS011;62184;52.006;5.924;2023-01-15T06:24:12;2.70;;;0.83;;
73841;SDS011;62184;52.006;5.924;2023-01-15T06:26:38;2.70;;;0.80;;
73841;SDS011;62184;52.006;5.924;2023-01-15T06:29:05;2.72;;;0.90;;
73841;SDS011;62184;52.006;5.924;2023-01-15T06:31:31;2.80;;;0.90;;
73841;SDS011;62184;52.006;5.924;2023-01-15T06:34:01;4.70;;;1.45;;
73841;SDS011;62184;52.006;5.924;2023-01-15T06:36:27;2.90;;;1.33;;
73841;SDS011;62184;52.006;5.924;2023-01-15T06:38:54;2.90;;;0.90;;
73841;SDS011;62184;52.006;5.924;2023-01-15T06:41:22;3.75;;;1.15;;
73841;SDS011;62184;52.006;5.924;2023-01-15T06:43:50;3.00;;;1.20;;
73841;SDS011;62184;52.006;5.924;2023-01-15T06:46:16;2.70;;;0.90;;
73841;SDS011;62184;52.006;5.924;2023-01-15T06:48:43;2.70;;;0.80;;
73841;SDS011;62184;52.006;5.924;2023-01-15T06:51:12;2.80;;;1.00;;
73841;SDS011;62184;52.006;5.924;2023-01-15T06:53:38;3.00;;;1.03;;
73841;SDS011;62184;52.006;5.924;2023-01-15T06:56:05;2.73;;;1.03;;
73841;SDS011;62184;52.006;5.924;2023-01-15T06:58:32;2.70;;;0.80;;
73841;SDS011;62184;52.006;5.924;2023-01-15T07:00:58;2.60;;;0.90;;
73841;SDS011;62184;52.006;5.924;2023-01-15T07:03:25;2.70;;;0.85;;
73841;SDS011;62184;52.006;5.924;2023-01-15T07:05:51;2.70;;;0.90;;
73841;SDS011;62184;52.006;5.924;2023-01-15T07:08:20;2.80;;;1.00;;
73841;SDS011;62184;52.006;5.924;2023-01-15T07:10:47;3.03;;;1.55;;
73841;SDS011;62184;52.006;5.924;2023-01-15T07:13:13;3.10;;;1.23;;
73841;SDS011;62184;52.006;5.924;2023-01-15T07:15:39;2.80;;;1.00;;
73841;SDS011;62184;52.006;5.924;2023-01-15T07:18:06;2.90;;;1.40;;
73841;SDS011;62184;52.006;5.924;2023-01-15T07:20:32;2.70;;;0.90;;
73841;SDS011;62184;52.006;5.924;2023-01-15T07:22:59;2.80;;;1.07;;
73841;SDS011;62184;52.006;5.924;2023-01-15T07:25:28;2.60;;;0.80;;
73841;SDS011;62184;52.006;5.924;2023-01-15T07:27:54;2.70;;;0.93;;
73841;SDS011;62184;52.006;5.924;2023-01-15T07:30:21;2.83;;;1.20;;
73841;SDS011;62184;52.006;5.924;2023-01-15T07:32:47;3.30;;;1.20;;
73841;SDS011;62184;52.006;5.924;2023-01-15T07:35:14;2.80;;;1.02;;
73841;SDS011;62184;52.006;5.924;2023-01-15T07:37:40;2.80;;;1.08;;
73841;SDS011;62184;52.006;5.924;2023-01-15T07:40:07;2.80;;;1.10;;
73841;SDS011;62184;52.006;5.924;2023-01-15T07:42:38;2.80;;;1.10;;
73841;SDS011;62184;52.006;5.924;2023-01-15T07:45:05;2.90;;;1.08;;
73841;SDS011;62184;52.006;5.924;2023-01-15T07:47:34;2.80;;;1.00;;
73841;SDS011;62184;52.006;5.924;2023-01-15T07:50:00;2.80;;;0.90;;
73841;SDS011;62184;52.006;5.924;2023-01-15T07:52:28;2.90;;;1.37;;
73841;SDS011;62184;52.006;5.924;2023-01-15T07:54:55;2.90;;;1.30;;
73841;SDS011;62184;52.006;5.924;2023-01-15T07:57:21;2.80;;;0.90;;
73841;SDS011;62184;52.006;5.924;2023-01-15T07:59:51;2.70;;;0.90;;
73841;SDS011;62184;52.006;5.924;2023-01-15T08:02:17;2.70;;;1.05;;
73841;SDS011;62184;52.006;5.924;2023-01-15T08:04:44;2.70;;;1.00;;
73841;SDS011;62184;52.006;5.924;2023-01-15T08:07:10;2.83;;;1.23;;
73841;SDS011;62184;52.006;5.924;2023-01-15T08:09:37;2.80;;;1.00;;
73841;SDS011;62184;52.006;5.924;2023-01-15T08:12:03;2.90;;;1.02;;
73841;SDS011;62184;52.006;5.924;2023-01-15T08:14:30;2.70;;;0.80;;
73841;SDS011;62184;52.006;5.924;2023-01-15T08:16:59;2.80;;;1.10;;
73841;SDS011;62184;52.006;5.924;2023-01-15T08:19:26;3.00;;;1.50;;
73841;SDS011;62184;52.006;5.924;2023-01-15T08:21:52;2.80;;;1.08;;
73841;SDS011;62184;52.006;5.924;2023-01-15T08:24:18;2.80;;;1.10;;
73841;SDS011;62184;52.006;5.924;2023-01-15T08:26:45;2.90;;;1.10;;
73841;SDS011;62184;52.006;5.924;2023-01-15T08:29:11;2.77;;;0.97;;
73841;SDS011;62184;52.006;5.924;2023-01-15T08:31:38;2.90;;;1.20;;
73841;SDS011;62184;52.006;5.924;2023-01-15T08:34:07;2.60;;;0.90;;
73841;SDS011;62184;52.006;5.924;2023-01-15T08:36:33;2.70;;;0.90;;
73841;SDS011;62184;52.006;5.924;2023-01-15T08:39:00;2.88;;;1.27;;
73841;SDS011;62184;52.006;5.924;2023-01-15T08:41:27;2.75;;;0.93;;
73841;SDS011;62184;52.006;5.924;2023-01-15T08:43:54;2.85;;;1.23;;
73841;SDS011;62184;52.006;5.924;2023-01-15T08:46:20;2.80;;;1.15;;
73841;SDS011;62184;52.006;5.924;2023-01-15T08:48:46;3.80;;;1.60;;
73841;SDS011;62184;52.006;5.924;2023-01-15T08:51:16;2.90;;;1.10;;
73841;SDS011;62184;52.006;5.924;2023-01-15T08:53:42;2.80;;;1.05;;
73841;SDS011;62184;52.006;5.924;2023-01-15T08:56:10;3.10;;;1.10;;
73841;SDS011;62184;52.006;5.924;2023-01-15T08:58:37;3.10;;;1.20;;
73841;SDS011;62184;52.006;5.924;2023-01-15T09:01:04;2.70;;;1.00;;
73841;SDS011;62184;52.006;5.924;2023-01-15T09:03:33;3.00;;;1.37;;
73841;SDS011;62184;52.006;5.924;2023-01-15T09:06:01;2.80;;;1.00;;
73841;SDS011;62184;52.006;5.924;2023-01-15T09:08:31;2.70;;;0.88;;
73841;SDS011;62184;52.006;5.924;2023-01-15T09:10:58;2.90;;;1.40;;
73841;SDS011;62184;52.006;5.924;2023-01-15T09:13:26;2.80;;;1.10;;
73841;SDS011;62184;52.006;5.924;2023-01-15T09:15:57;2.70;;;0.90;;
73841;SDS011;62184;52.006;5.924;2023-01-15T09:18:25;2.80;;;1.00;;
73841;SDS011;62184;52.006;5.924;2023-01-15T09:20:51;2.70;;;1.00;;
73841;SDS011;62184;52.006;5.924;2023-01-15T09:23:18;2.70;;;1.00;;
73841;SDS011;62184;52.006;5.924;2023-01-15T09:25:52;2.60;;;0.75;;
73841;SDS011;62184;52.006;5.924;2023-01-15T09:28:20;2.70;;;0.80;;
73841;SDS011;62184;52.006;5.924;2023-01-15T09:30:47;2.70;;;1.00;;
73841;SDS011;62184;52.006;5.924;2023-01-15T09:33:14;4.50;;;1.00;;
73841;SDS011;62184;52.006;5.924;2023-01-15T09:35:40;2.90;;;1.20;;
73841;SDS011;62184;52.006;5.924;2023-01-15T09:38:09;2.75;;;1.05;;
73841;SDS011;62184;52.006;5.924;2023-01-15T09:40:39;3.20;;;1.00;;
73841;SDS011;62184;52.006;5.924;2023-01-15T09:43:21;2.70;;;0.82;;
73841;SDS011;62184;52.006;5.924;2023-01-15T09:46:03;2.70;;;0.80;;
73841;SDS011;62184;52.006;5.924;2023-01-15T09:48:42;2.80;;;1.00;;
73841;SDS011;62184;52.006;5.924;2023-01-15T09:51:22;2.70;;;0.88;;
73841;SDS011;62184;52.006;5.924;2023-01-15T09:57:01;2.72;;;1.00;;
73841;SDS011;62184;52.006;5.924;2023-01-15T09:59:35;2.60;;;0.80;;
73841;SDS011;62184;52.006;5.924;2023-01-15T10:02:11;2.60;;;0.80;;
73841;SDS011;62184;52.006;5.924;2023-01-15T10:04:50;2.90;;;1.00;;
73841;SDS011;62184;52.006;5.924;2023-01-15T10:07:26;2.70;;;0.93;;
73841;SDS011;62184;52.006;5.924;2023-01-15T10:10:03;2.72;;;1.23;;
73841;SDS011;62184;52.006;5.924;2023-01-15T10:12:36;2.92;;;0.80;;
73841;SDS011;62184;52.006;5.924;2023-01-15T10:15:13;2.85;;;1.27;;
73841;SDS011;62184;52.006;5.924;2023-01-15T10:17:49;3.30;;;1.00;;
73841;SDS011;62184;52.006;5.924;2023-01-15T10:20:24;2.90;;;0.98;;
73841;SDS011;62184;52.006;5.924;2023-01-15T10:23:15;2.75;;;1.00;;
73841;SDS011;62184;52.006;5.924;2023-01-15T10:26:01;2.60;;;0.80;;
73841;SDS011;62184;52.006;5.924;2023-01-15T10:28:43;2.90;;;1.00;;
73841;SDS011;62184;52.006;5.924;2023-01-15T10:31:26;2.65;;;0.77;;
73841;SDS011;62184;52.006;5.924;2023-01-15T10:37:31;2.70;;;0.90;;
73841;SDS011;62184;52.006;5.924;2023-01-15T10:40:08;2.70;;;0.80;;
73841;SDS011;62184;52.006;5.924;2023-01-15T10:42:54;3.00;;;1.37;;
73841;SDS011;62184;52.006;5.924;2023-01-15T10:45:31;2.83;;;1.10;;
73841;SDS011;62184;52.006;5.924;2023-01-15T10:48:08;3.10;;;1.20;;
73841;SDS011;62184;52.006;5.924;2023-01-15T10:50:51;3.00;;;1.20;;
73841;SDS011;62184;52.006;5.924;2023-01-15T10:53:23;2.65;;;0.85;;
73841;SDS011;62184;52.006;5.924;2023-01-15T10:56:00;3.60;;;0.82;;
73841;SDS011;62184;52.006;5.924;2023-01-15T10:58:38;2.70;;;0.90;;
73841;SDS011;62184;52.006;5.924;2023-01-15T11:01:12;2.60;;;0.80;;
73841;SDS011;62184;52.006;5.924;2023-01-15T11:03:45;2.70;;;0.85;;
73841;SDS011;62184;52.006;5.924;2023-01-15T11:06:12;2.90;;;1.23;;
73841;SDS011;62184;52.006;5.924;2023-01-15T11:08:42;2.60;;;0.90;;
73841;SDS011;62184;52.006;5.924;2023-01-15T11:11:17;2.80;;;0.93;;
73841;SDS011;62184;52.006;5.924;2023-01-15T11:13:51;3.30;;;1.42;;
73841;SDS011;62184;52.006;5.924;2023-01-15T11:16:21;2.90;;;1.23;;
73841;SDS011;62184;52.006;5.924;2023-01-15T11:18:54;3.00;;;1.45;;
73841;SDS011;62184;52.006;5.924;2023-01-15T11:21:21;2.90;;;1.10;;
73841;SDS011;62184;52.006;5.924;2023-01-15T11:23:50;2.60;;;0.68;;
73841;SDS011;62184;52.006;5.924;2023-01-15T11:26:20;2.80;;;1.00;;
73841;SDS011;62184;52.006;5.924;2023-01-15T11:28:50;2.70;;;0.95;;
73841;SDS011;62184;52.006;5.924;2023-01-15T11:31:18;2.72;;;0.82;;
73841;SDS011;62184;52.006;5.924;2023-01-15T11:33:54;2.67;;;0.77;;
73841;SDS011;62184;52.006;5.924;2023-01-15T11:36:28;2.88;;;1.20;;
73841;SDS011;62184;52.006;5.924;2023-01-15T11:38:55;2.78;;;0.98;;
73841;SDS011;62184;52.006;5.924;2023-01-15T11:41:23;2.70;;;0.80;;
73841;SDS011;62184;52.006;5.924;2023-01-15T11:43:55;2.70;;;0.80;;
73841;SDS011;62184;52.006;5.924;2023-01-15T11:46:24;2.70;;;0.70;;
73841;SDS011;62184;52.006;5.924;2023-01-15T11:48:54;2.70;;;0.75;;
73841;SDS011;62184;52.006;5.924;2023-01-15T11:51:24;2.70;;;1.00;;
73841;SDS011;62184;52.006;5.924;2023-01-15T11:53:53;4.25;;;1.40;;
73841;SDS011;62184;52.006;5.924;2023-01-15T11:56:29;3.30;;;1.50;;
73841;SDS011;62184;52.006;5.924;2023-01-15T11:59:00;2.80;;;0.90;;
73841;SDS011;62184;52.006;5.924;2023-01-15T12:01:34;2.70;;;1.03;;
73841;SDS011;62184;52.006;5.924;2023-01-15T12:04:21;2.80;;;1.08;;
73841;SDS011;62184;52.006;5.924;2023-01-15T12:07:01;2.70;;;0.80;;
73841;SDS011;62184;52.006;5.924;2023-01-15T12:09:34;2.67;;;0.90;;
73841;SDS011;62184;52.006;5.924;2023-01-15T12:12:25;2.80;;;1.00;;
73841;SDS011;62184;52.006;5.924;2023-01-15T12:18:07;2.90;;;1.30;;
73841;SDS011;62184;52.006;5.924;2023-01-15T12:21:12;3.03;;;1.27;;
73841;SDS011;62184;52.006;5.924;2023-01-15T12:24:13;3.10;;;1.17;;
73841;SDS011;62184;52.006;5.924;2023-01-15T12:27:18;2.80;;;0.90;;
73841;SDS011;62184;52.006;5.924;2023-01-15T12:30:04;2.70;;;1.02;;
73841;SDS011;62184;52.006;5.924;2023-01-15T12:32:49;2.80;;;0.95;;
73841;SDS011;62184;52.006;5.924;2023-01-15T12:35:27;2.70;;;0.88;;
73841;SDS011;62184;52.006;5.924;2023-01-15T12:37:57;2.70;;;0.90;;
73841;SDS011;62184;52.006;5.924;2023-01-15T12:40:39;2.90;;;1.20;;
73841;SDS011;62184;52.006;5.924;2023-01-15T12:43:14;2.70;;;0.80;;
73841;SDS011;62184;52.006;5.924;2023-01-15T12:45:50;10.15;;;2.58;;
73841;SDS011;62184;52.006;5.924;2023-01-15T12:48:21;7.93;;;2.70;;
73841;SDS011;62184;52.006;5.924;2023-01-15T12:51:00;9.57;;;2.95;;
73841;SDS011;62184;52.006;5.924;2023-01-15T12:53:31;8.00;;;2.75;;
73841;SDS011;62184;52.006;5.924;2023-01-15T12:56:13;6.63;;;2.47;;
73841;SDS011;62184;52.006;5.924;2023-01-15T12:58:49;7.40;;;2.50;;
73841;SDS011;62184;52.006;5.924;2023-01-15T13:01:22;9.80;;;2.80;;
73841;SDS011;62184;52.006;5.924;2023-01-15T13:04:02;9.25;;;2.78;;
73841;SDS011;62184;52.006;5.924;2023-01-15T13:06:40;8.77;;;2.60;;
73841;SDS011;62184;52.006;5.924;2023-01-15T13:09:18;6.90;;;2.40;;
73841;SDS011;62184;52.006;5.924;2023-01-15T13:12:06;7.45;;;2.53;;
73841;SDS011;62184;52.006;5.924;2023-01-15T13:14:38;8.00;;;2.40;;
73841;SDS011;62184;52.006;5.924;2023-01-15T13:17:05;7.63;;;2.80;;
73841;SDS011;62184;52.006;5.924;2023-01-15T13:19:48;7.20;;;2.80;;
73841;SDS011;62184;52.006;5.924;2023-01-15T13:22:42;9.43;;;2.88;;
73841;SDS011;62184;52.006;5.924;2023-01-15T13:25:33;9.37;;;3.10;;
73841;SDS011;62184;52.006;5.924;2023-01-15T13:28:30;8.80;;;2.60;;
73841;SDS011;62184;52.006;5.924;2023-01-15T13:31:16;9.07;;;2.40;;
73841;SDS011;62184;52.006;5.924;2023-01-15T13:34:14;10.13;;;3.25;;
73841;SDS011;62184;52.006;5.924;2023-01-15T13:36:53;9.85;;;3.03;;
73841;SDS011;62184;52.006;5.924;2023-01-15T13:39:36;9.73;;;3.03;;
73841;SDS011;62184;52.006;5.924;2023-01-15T13:42:12;10.10;;;3.25;;
73841;SDS011;62184;52.006;5.924;2023-01-15T13:44:48;9.20;;;2.95;;
73841;SDS011;62184;52.006;5.924;2023-01-15T13:47:19;7.93;;;2.75;;
73841;SDS011;62184;52.006;5.924;2023-01-15T13:49:51;8.07;;;2.92;;
73841;SDS011;62184;52.006;5.924;2023-01-15T13:52:23;8.15;;;2.80;;
73841;SDS011;62184;52.006;5.924;2023-01-15T13:54:54;7.82;;;2.55;;
73841;SDS011;62184;52.006;5.924;2023-01-15T13:57:34;9.07;;;2.83;;
73841;SDS011;62184;52.006;5.924;2023-01-15T14:00:06;12.02;;;3.00;;
73841;SDS011;62184;52.006;5.924;2023-01-15T14:02:53;9.88;;;3.08;;
73841;SDS011;62184;52.006;5.924;2023-01-15T14:05:25;7.57;;;2.80;;
73841;SDS011;62184;52.006;5.924;2023-01-15T14:07:56;9.57;;;2.83;;
73841;SDS011;62184;52.006;5.924;2023-01-15T14:10:25;9.98;;;2.70;;
73841;SDS011;62184;52.006;5.924;2023-01-15T14:13:08;9.48;;;2.95;;
73841;SDS011;62184;52.006;5.924;2023-01-15T14:16:10;8.73;;;2.60;;
73841;SDS011;62184;52.006;5.924;2023-01-15T14:18:56;7.93;;;3.25;;
73841;SDS011;62184;52.006;5.924;2023-01-15T14:21:56;8.30;;;3.17;;
73841;SDS011;62184;52.006;5.924;2023-01-15T14:25:00;9.85;;;2.90;;
73841;SDS011;62184;52.006;5.924;2023-01-15T14:27:49;7.55;;;3.05;;
73841;SDS011;62184;52.006;5.924;2023-01-15T14:30:50;8.23;;;2.83;;
73841;SDS011;62184;52.006;5.924;2023-01-15T14:33:43;9.33;;;3.17;;
73841;SDS011;62184;52.006;5.924;2023-01-15T14:36:29;9.02;;;3.25;;
73841;SDS011;62184;52.006;5.924;2023-01-15T14:39:05;10.00;;;2.90;;
73841;SDS011;62184;52.006;5.924;2023-01-15T14:41:58;7.90;;;3.00;;
73841;SDS011;62184;52.006;5.924;2023-01-15T14:44:36;8.87;;;2.60;;
73841;SDS011;62184;52.006;5.924;2023-01-15T14:47:19;7.53;;;2.60;;
73841;SDS011;62184;52.006;5.924;2023-01-15T14:53:01;8.43;;;2.92;;
73841;SDS011;62184;52.006;5.924;2023-01-15T14:55:55;10.43;;;3.03;;
73841;SDS011;62184;52.006;5.924;2023-01-15T14:58:30;9.93;;;2.90;;
73841;SDS011;62184;52.006;5.924;2023-01-15T15:01:13;10.68;;;3.60;;
73841;SDS011;62184;52.006;5.924;2023-01-15T15:03:55;9.47;;;2.90;;
73841;SDS011;62184;52.006;5.924;2023-01-15T15:06:30;10.10;;;3.28;;
73841;SDS011;62184;52.006;5.924;2023-01-15T15:08:57;10.25;;;3.20;;
73841;SDS011;62184;52.006;5.924;2023-01-15T15:11:32;11.98;;;3.70;;
73841;SDS011;62184;52.006;5.924;2023-01-15T15:14:10;9.95;;;3.00;;
73841;SDS011;62184;52.006;5.924;2023-01-15T15:16:41;9.52;;;2.90;;
73841;SDS011;62184;52.006;5.924;2023-01-15T15:19:15;10.02;;;3.35;;
73841;SDS011;62184;52.006;5.924;2023-01-15T15:21:54;8.65;;;3.05;;
73841;SDS011;62184;52.006;5.924;2023-01-15T15:24:25;8.55;;;3.03;;
73841;SDS011;62184;52.006;5.924;2023-01-15T15:26:56;9.32;;;2.95;;
73841;SDS011;62184;52.006;5.924;2023-01-15T15:29:39;9.77;;;2.95;;
73841;SDS011;62184;52.006;5.924;2023-01-15T15:32:05;8.25;;;3.17;;
73841;SDS011;62184;52.006;5.924;2023-01-15T15:34:42;7.53;;;3.10;;